createdAt,value
2022-10-16T00:01:23.758Z,50.75
2022-10-16T00:03:50.961Z,50.78
2022-10-16T00:06:18.068Z,50.55
2022-10-16T00:08:45.127Z,50.88
2022-10-16T00:11:16.415Z,50.72
2022-10-16T00:13:44.570Z,50.57
2022-10-16T00:16:13.251Z,50.83
2022-10-16T00:18:40.592Z,50.86
2022-10-16T00:21:13.053Z,50.56
2022-10-16T00:23:39.981Z,50.63
2022-10-16T00:26:18.401Z,50.77
2022-10-16T00:28:49.255Z,50.89
2022-10-16T00:31:18.113Z,50.68
2022-10-16T00:33:44.583Z,50.85
2022-10-16T00:36:14.355Z,50.61
2022-10-16T00:38:41.004Z,50.70
2022-10-16T00:41:10.796Z,50.82
2022-10-16T00:44:08.288Z,50.76
2022-10-16T00:46:43.195Z,50.66
2022-10-16T00:49:12.278Z,50.79
2022-10-16T00:51:47.529Z,50.70
2022-10-16T00:54:17.915Z,50.59
2022-10-16T00:56:47.212Z,50.74
2022-10-16T00:59:21.353Z,50.58
2022-10-16T01:01:47.905Z,50.68
2022-10-16T01:04:14.701Z,50.77
2022-10-16T01:06:54.584Z,50.82
2022-10-16T01:10:04.720Z,50.64
2022-10-16T01:12:45.446Z,51.17
2022-10-16T01:15:32.860Z,50.72
2022-10-16T01:18:15.489Z,50.60
2022-10-16T01:21:02.201Z,50.78
2022-10-16T01:23:32.849Z,50.69
2022-10-16T01:26:24.204Z,50.92
2022-10-16T01:29:21.743Z,50.73
2022-10-16T01:31:54.825Z,50.68
2022-10-16T01:34:48.138Z,50.86
2022-10-16T01:37:19.658Z,50.86
2022-10-16T01:39:51.255Z,50.93
2022-10-16T01:42:25.002Z,50.72
2022-10-16T01:44:54.002Z,50.69
2022-10-16T01:47:25.859Z,50.64
2022-10-16T01:49:54.869Z,50.75
2022-10-16T01:52:27.207Z,50.66
2022-10-16T01:54:58.611Z,50.44
2022-10-16T01:57:27.721Z,50.70
2022-10-16T01:59:59.872Z,50.94
2022-10-16T02:02:29.649Z,50.77
2022-10-16T02:05:01.414Z,50.64
2022-10-16T02:07:28.037Z,50.79
2022-10-16T02:09:55.357Z,50.64
2022-10-16T02:12:27.838Z,50.79
2022-10-16T02:14:54.554Z,50.80
2022-10-16T02:17:22.184Z,50.88
2022-10-16T02:19:51.882Z,50.69
2022-10-16T02:22:34.852Z,50.84
2022-10-16T02:25:08.310Z,50.77
2022-10-16T02:27:52.906Z,50.75
2022-10-16T02:30:43.484Z,50.72
2022-10-16T02:33:14.520Z,50.84
2022-10-16T02:35:42.550Z,50.83
2022-10-16T02:40:42.208Z,50.69
2022-10-16T02:43:10.022Z,50.87
2022-10-16T02:45:36.678Z,50.78
2022-10-16T02:48:03.506Z,50.80
2022-10-16T02:50:30.008Z,50.80
2022-10-16T02:52:56.596Z,50.73
2022-10-16T02:55:23.170Z,50.78
2022-10-16T02:57:49.657Z,50.79
2022-10-16T03:00:18.187Z,50.76
2022-10-16T03:02:45.060Z,50.85
2022-10-16T03:05:11.722Z,50.83
2022-10-16T03:07:38.320Z,50.94
2022-10-16T03:10:05.237Z,50.85
2022-10-16T03:12:31.734Z,50.68
2022-10-16T03:14:58.415Z,50.78
2022-10-16T03:17:26.195Z,50.68
2022-10-16T03:19:52.853Z,50.87
2022-10-16T03:22:19.304Z,50.94
2022-10-16T03:24:45.751Z,50.89
2022-10-16T03:27:12.232Z,50.71
2022-10-16T03:29:38.685Z,50.68
2022-10-16T03:32:05.161Z,50.68
2022-10-16T03:34:31.617Z,50.65
2022-10-16T03:36:58.093Z,50.80
2022-10-16T03:39:24.758Z,50.85
2022-10-16T03:41:51.245Z,50.88
2022-10-16T03:44:17.709Z,50.72
2022-10-16T03:46:44.212Z,50.92
2022-10-16T03:49:10.707Z,50.87
2022-10-16T03:51:37.281Z,50.83
2022-10-16T03:54:03.917Z,50.76
2022-10-16T03:56:30.409Z,50.82
2022-10-16T03:58:56.873Z,50.81
2022-10-16T04:01:23.399Z,50.82
2022-10-16T04:03:49.950Z,50.96
2022-10-16T04:06:16.421Z,50.83
2022-10-16T04:08:46.157Z,51.00
2022-10-16T04:11:12.796Z,50.80
2022-10-16T04:13:39.290Z,50.68
2022-10-16T04:16:05.965Z,50.76
2022-10-16T04:18:32.454Z,50.83
2022-10-16T04:21:04.041Z,51.14
2022-10-16T04:23:30.559Z,50.87
2022-10-16T04:25:57.037Z,50.82
2022-10-16T04:28:23.646Z,50.81
2022-10-16T04:30:50.140Z,50.90
2022-10-16T04:33:16.594Z,50.99
2022-10-16T04:35:43.116Z,50.85
2022-10-16T04:38:09.569Z,51.05
2022-10-16T04:40:38.538Z,50.85
2022-10-16T04:43:05.684Z,50.55
2022-10-16T04:45:32.500Z,50.85
2022-10-16T04:48:00.096Z,50.87
2022-10-16T04:50:27.133Z,50.72
2022-10-16T04:52:53.593Z,50.67
2022-10-16T04:55:20.103Z,50.77
2022-10-16T04:57:46.603Z,50.91
2022-10-16T05:00:13.676Z,50.88
2022-10-16T05:02:40.174Z,50.72
2022-10-16T05:05:06.957Z,50.80
2022-10-16T05:07:33.416Z,50.80
2022-10-16T05:09:59.873Z,50.78
2022-10-16T05:12:26.355Z,50.96
2022-10-16T05:14:52.856Z,50.77
2022-10-16T05:17:19.284Z,50.90
2022-10-16T05:19:45.726Z,50.75
2022-10-16T05:22:12.185Z,50.93
2022-10-16T05:24:38.653Z,50.84
2022-10-16T05:27:05.124Z,50.66
2022-10-16T05:29:31.766Z,50.58
2022-10-16T05:31:58.200Z,50.77
2022-10-16T05:34:24.661Z,50.71
2022-10-16T05:36:51.285Z,50.71
2022-10-16T05:39:17.835Z,50.89
2022-10-16T05:41:44.604Z,50.67
2022-10-16T05:44:11.225Z,50.75
2022-10-16T05:46:37.892Z,50.91
2022-10-16T05:49:04.929Z,50.78
2022-10-16T05:51:31.434Z,50.77
2022-10-16T05:53:57.929Z,50.83
2022-10-16T05:56:24.393Z,50.76
2022-10-16T05:58:50.846Z,50.65
2022-10-16T06:01:19.626Z,50.75
2022-10-16T06:03:46.184Z,50.81
2022-10-16T06:06:21.262Z,50.89
2022-10-16T06:08:48.893Z,50.79
2022-10-16T06:11:19.124Z,50.74
2022-10-16T06:13:46.945Z,50.75
2022-10-16T06:16:14.081Z,47.34
2022-10-16T06:18:40.596Z,47.70
2022-10-16T06:21:11.588Z,48.07
2022-10-16T06:23:38.158Z,48.23
2022-10-16T06:26:12.797Z,48.42
2022-10-16T06:28:40.226Z,49.13
2022-10-16T06:33:35.437Z,49.24
2022-10-16T06:36:13.921Z,49.11
2022-10-16T06:38:40.418Z,48.92
2022-10-16T06:41:08.333Z,48.76
2022-10-16T06:43:37.844Z,48.81
2022-10-16T06:46:06.413Z,48.76
2022-10-16T06:48:32.864Z,48.82
2022-10-16T06:51:09.313Z,48.52
2022-10-16T06:53:39.782Z,48.67
2022-10-16T06:56:18.517Z,48.37
2022-10-16T06:58:45.858Z,48.58
2022-10-16T07:01:12.748Z,48.76
2022-10-16T07:03:41.389Z,49.12
2022-10-16T07:06:10.919Z,48.55
2022-10-16T07:08:39.551Z,48.71
2022-10-16T07:11:08.954Z,48.72
2022-10-16T07:13:39.651Z,48.85
2022-10-16T07:16:10.361Z,48.42
2022-10-16T07:18:37.430Z,48.81
2022-10-16T07:21:06.001Z,48.79
2022-10-16T07:23:32.561Z,48.82
2022-10-16T07:25:59.033Z,48.83
2022-10-16T07:28:25.741Z,48.74
2022-10-16T07:30:52.346Z,48.62
2022-10-16T07:33:19.304Z,48.79
2022-10-16T07:35:50.561Z,48.82
2022-10-16T07:38:17.148Z,48.84
2022-10-16T07:40:43.675Z,48.87
2022-10-16T07:43:10.340Z,48.22
2022-10-16T07:45:36.794Z,49.15
2022-10-16T07:48:03.577Z,48.99
2022-10-16T07:50:30.035Z,49.39
2022-10-16T07:52:56.507Z,49.58
2022-10-16T07:55:23.066Z,49.52
2022-10-16T07:57:49.538Z,49.84
2022-10-16T08:00:18.541Z,49.78
2022-10-16T08:02:45.014Z,51.51
2022-10-16T08:05:11.477Z,51.53
2022-10-16T08:07:37.930Z,51.09
2022-10-16T08:10:04.880Z,52.21
2022-10-16T08:12:31.328Z,51.90
2022-10-16T08:14:57.775Z,51.08
2022-10-16T08:17:24.620Z,51.21
2022-10-16T08:19:51.285Z,51.46
2022-10-16T08:22:17.806Z,52.78
2022-10-16T08:24:44.266Z,52.22
2022-10-16T08:27:11.174Z,52.50
2022-10-16T08:29:37.615Z,52.51
2022-10-16T08:32:04.964Z,52.46
2022-10-16T08:34:31.299Z,53.50
2022-10-16T08:36:57.761Z,53.36
2022-10-16T08:39:24.204Z,53.68
2022-10-16T08:42:11.957Z,53.45
2022-10-16T08:44:55.786Z,52.84
2022-10-16T08:47:34.952Z,52.92
2022-10-16T08:50:13.057Z,52.88
2022-10-16T08:52:42.867Z,52.68
2022-10-16T08:55:34.145Z,52.83
2022-10-16T08:58:01.722Z,52.76
2022-10-16T09:00:29.480Z,52.78
2022-10-16T09:03:40.853Z,53.34
2022-10-16T09:06:31.860Z,54.46
2022-10-16T09:09:26.174Z,54.27
2022-10-16T09:12:08.808Z,53.66
2022-10-16T09:14:52.415Z,53.44
2022-10-16T09:17:37.110Z,53.34
2022-10-16T09:20:29.001Z,52.97
2022-10-16T09:23:13.694Z,52.75
2022-10-16T09:25:42.180Z,52.63
2022-10-16T09:28:10.176Z,52.31
2022-10-16T09:30:38.077Z,52.28
2022-10-16T09:33:05.420Z,52.06
2022-10-16T09:35:38.383Z,51.99
2022-10-16T09:38:05.172Z,52.03
2022-10-16T09:40:37.721Z,51.84
2022-10-16T09:43:33.612Z,51.60
2022-10-16T09:46:23.547Z,51.55
2022-10-16T09:48:51.807Z,51.34
2022-10-16T09:51:25.890Z,51.48
2022-10-16T09:54:18.968Z,51.29
2022-10-16T09:56:47.755Z,51.27
2022-10-16T09:59:22.071Z,51.38
2022-10-16T10:01:51.938Z,51.15
2022-10-16T10:04:23.754Z,51.04
2022-10-16T10:06:53.954Z,51.07
2022-10-16T10:09:23.776Z,51.04
2022-10-16T10:12:00.776Z,51.13
2022-10-16T10:14:44.310Z,51.11
2022-10-16T10:17:14.382Z,51.01
2022-10-16T10:19:49.660Z,50.73
2022-10-16T10:22:25.274Z,51.06
2022-10-16T10:25:04.124Z,51.09
2022-10-16T10:28:00.035Z,50.90
2022-10-16T10:30:26.527Z,50.76
2022-10-16T10:33:37.717Z,50.91
2022-10-16T10:36:15.396Z,50.72
2022-10-16T10:39:00.064Z,50.98
2022-10-16T10:41:51.104Z,51.02
2022-10-16T10:44:41.924Z,50.76
2022-10-16T10:47:38.908Z,50.76
2022-10-16T10:50:36.807Z,50.90
2022-10-16T10:53:09.121Z,50.98
2022-10-16T10:55:44.321Z,50.79
2022-10-16T10:58:31.138Z,51.04
2022-10-16T11:01:12.722Z,50.93
2022-10-16T11:04:07.127Z,50.95
2022-10-16T11:06:41.073Z,50.94
2022-10-16T11:09:22.641Z,51.01
2022-10-16T11:11:55.737Z,50.91
2022-10-16T11:14:32.566Z,50.83
2022-10-16T11:17:17.966Z,50.94
2022-10-16T11:19:53.205Z,50.86
2022-10-16T11:22:48.461Z,51.10
2022-10-16T11:25:28.296Z,51.03
2022-10-16T11:28:15.925Z,50.97
2022-10-16T11:30:58.163Z,50.67
2022-10-16T11:33:41.232Z,50.81
2022-10-16T11:36:10.651Z,50.89
2022-10-16T11:39:12.836Z,51.07
2022-10-16T11:42:00.070Z,50.88
2022-10-16T11:44:52.785Z,50.82
2022-10-16T11:47:57.415Z,51.01
2022-10-16T11:50:57.790Z,51.00
2022-10-16T11:53:58.097Z,51.00
2022-10-16T11:56:26.482Z,50.57
2022-10-16T11:58:55.929Z,50.85
2022-10-16T12:01:34.905Z,50.68
2022-10-16T12:04:16.512Z,50.75
2022-10-16T12:07:07.001Z,50.81
2022-10-16T12:09:37.442Z,50.84
2022-10-16T12:12:04.316Z,50.78
2022-10-16T12:14:30.702Z,50.94
2022-10-16T12:16:57.229Z,50.97
2022-10-16T12:19:25.719Z,50.77
2022-10-16T12:21:55.492Z,50.85
2022-10-16T12:24:33.412Z,50.90
2022-10-16T12:27:00.625Z,50.91
2022-10-16T12:29:38.657Z,50.82
2022-10-16T12:32:41.806Z,50.94
2022-10-16T12:35:20.940Z,50.84
2022-10-16T12:37:47.506Z,50.82
2022-10-16T12:40:15.969Z,50.70
2022-10-16T12:42:42.456Z,50.75
2022-10-16T12:45:34.886Z,50.91
2022-10-16T12:48:04.134Z,50.88
2022-10-16T12:50:35.673Z,50.79
2022-10-16T12:53:04.683Z,50.93
2022-10-16T12:55:44.638Z,50.93
2022-10-16T12:58:24.117Z,50.83
2022-10-16T13:00:56.662Z,50.71
2022-10-16T13:03:50.284Z,50.99
2022-10-16T13:06:45.645Z,50.86
2022-10-16T13:09:42.465Z,50.90
2022-10-16T13:12:15.053Z,50.85
2022-10-16T13:14:41.521Z,50.75
2022-10-16T13:17:23.950Z,51.02
2022-10-16T13:20:05.741Z,50.69
2022-10-16T13:22:55.140Z,50.68
2022-10-16T13:25:45.974Z,50.83
2022-10-16T13:28:13.940Z,50.63
2022-10-16T13:30:42.735Z,50.72
2022-10-16T13:33:15.561Z,50.85
2022-10-16T13:35:55.328Z,50.86
2022-10-16T13:38:29.604Z,50.58
2022-10-16T13:40:59.036Z,50.85
2022-10-16T13:43:32.597Z,50.81
2022-10-16T13:46:18.106Z,50.65
2022-10-16T13:48:44.497Z,50.90
2022-10-16T13:51:17.738Z,50.62
2022-10-16T13:53:45.650Z,50.71
2022-10-16T13:56:15.199Z,50.70
2022-10-16T13:58:42.195Z,50.64
2022-10-16T14:01:21.303Z,50.76
2022-10-16T14:03:49.292Z,50.55
2022-10-16T14:06:18.826Z,50.58
2022-10-16T14:08:49.885Z,50.63
2022-10-16T14:11:24.660Z,50.85
2022-10-16T14:13:52.317Z,50.79
2022-10-16T14:16:22.581Z,50.71
2022-10-16T14:18:59.870Z,50.63
2022-10-16T14:21:27.623Z,50.55
2022-10-16T14:23:55.202Z,50.55
2022-10-16T14:26:24.305Z,50.57
2022-10-16T14:29:13.335Z,50.53
2022-10-16T14:31:40.801Z,50.61
2022-10-16T14:34:25.751Z,50.65
2022-10-16T14:36:52.237Z,50.61
2022-10-16T14:39:21.586Z,50.63
2022-10-16T14:41:50.432Z,50.73
2022-10-16T14:44:20.612Z,50.45
2022-10-16T14:46:47.301Z,50.71
2022-10-16T14:49:13.689Z,50.74
2022-10-16T14:51:42.931Z,50.58
2022-10-16T14:54:10.221Z,50.58
2022-10-16T14:56:45.702Z,50.68
2022-10-16T14:59:40.510Z,50.57
2022-10-16T15:02:23.757Z,50.89
2022-10-16T15:04:50.473Z,50.60
2022-10-16T15:07:17.064Z,50.84
2022-10-16T15:09:48.144Z,50.77
2022-10-16T15:12:16.797Z,50.60
2022-10-16T15:14:43.535Z,50.77
2022-10-16T15:17:13.459Z,50.89
2022-10-16T15:19:41.080Z,50.60
2022-10-16T15:22:07.570Z,50.73
2022-10-16T15:24:34.141Z,50.53
2022-10-16T15:27:00.640Z,50.58
2022-10-16T15:29:27.086Z,50.82
2022-10-16T15:31:53.578Z,50.65
2022-10-16T15:34:20.637Z,50.48
2022-10-16T15:36:47.281Z,50.60
2022-10-16T15:39:17.313Z,50.65
2022-10-16T15:41:45.445Z,50.62
2022-10-16T15:44:12.067Z,50.69
2022-10-16T15:46:38.550Z,50.65
2022-10-16T15:49:05.338Z,50.59
2022-10-16T15:51:34.022Z,50.49
2022-10-16T15:54:02.759Z,50.60
2022-10-16T15:56:29.858Z,50.55
2022-10-16T15:58:56.625Z,50.57
2022-10-16T16:01:23.203Z,50.78
2022-10-16T16:03:53.854Z,50.63
2022-10-16T16:06:20.439Z,50.68
2022-10-16T16:08:46.913Z,50.50
2022-10-16T16:11:15.589Z,50.58
2022-10-16T16:13:42.513Z,50.54
2022-10-16T16:16:11.261Z,50.62
2022-10-16T16:18:38.262Z,50.46
2022-10-16T16:21:05.693Z,50.63
2022-10-16T16:23:32.771Z,50.50
2022-10-16T16:26:15.865Z,50.80
2022-10-16T16:28:44.232Z,50.47
2022-10-16T16:31:11.290Z,50.52
2022-10-16T16:33:37.740Z,50.50
2022-10-16T16:36:10.439Z,50.55
2022-10-16T16:38:39.574Z,50.50
2022-10-16T16:41:17.923Z,50.63
2022-10-16T16:43:45.084Z,50.55
2022-10-16T16:46:11.965Z,50.41
2022-10-16T16:48:39.400Z,50.54
2022-10-16T16:51:16.119Z,50.63
2022-10-16T16:53:44.076Z,50.37
2022-10-16T16:56:10.894Z,50.52
2022-10-16T16:58:37.537Z,50.80
2022-10-16T17:01:21.412Z,50.60
2022-10-16T17:03:50.911Z,50.48
2022-10-16T17:06:20.600Z,50.58
2022-10-16T17:08:48.291Z,50.44
2022-10-16T17:11:17.468Z,50.71
2022-10-16T17:13:44.333Z,50.68
2022-10-16T17:16:11.110Z,50.56
2022-10-16T17:18:38.168Z,50.46
2022-10-16T17:21:07.241Z,50.50
2022-10-16T17:23:35.124Z,50.48
2022-10-16T17:26:11.037Z,50.53
2022-10-16T17:28:39.149Z,50.58
2022-10-16T17:31:24.243Z,50.56
2022-10-16T17:33:51.709Z,50.48
2022-10-16T17:36:19.429Z,50.61
2022-10-16T17:38:46.646Z,50.40
2022-10-16T17:41:15.589Z,50.51
2022-10-16T17:43:42.861Z,50.65
2022-10-16T17:46:10.080Z,50.48
2022-10-16T17:48:40.906Z,50.59
2022-10-16T17:51:09.066Z,50.56
2022-10-16T17:53:36.514Z,50.34
2022-10-16T17:56:13.899Z,50.57
2022-10-16T17:58:41.221Z,50.46
2022-10-16T18:01:21.519Z,50.56
2022-10-16T18:03:56.239Z,50.54
2022-10-16T18:06:23.646Z,50.47
2022-10-16T18:08:51.320Z,50.55
2022-10-16T18:11:17.976Z,50.55
2022-10-16T18:13:44.460Z,50.68
2022-10-16T18:16:13.204Z,50.58
2022-10-16T18:18:41.219Z,50.61
2022-10-16T18:21:11.103Z,50.60
2022-10-16T18:23:38.891Z,50.43
2022-10-16T18:26:06.767Z,50.60
2022-10-16T18:28:33.803Z,50.58
2022-10-16T18:31:04.621Z,50.59
2022-10-16T18:33:31.944Z,50.59
2022-10-16T18:36:02.248Z,50.62
2022-10-16T18:38:29.415Z,50.59
2022-10-16T18:40:56.048Z,50.63
2022-10-16T18:43:22.551Z,50.46
2022-10-16T18:45:59.977Z,50.37
2022-10-16T18:48:27.721Z,50.67
2022-10-16T18:50:54.645Z,50.41
2022-10-16T18:53:21.276Z,50.56
2022-10-16T18:55:53.820Z,50.57
2022-10-16T18:58:20.329Z,50.55
2022-10-16T19:00:46.962Z,50.64
2022-10-16T19:03:13.430Z,50.69
2022-10-16T19:05:39.921Z,50.56
2022-10-16T19:08:06.394Z,50.48
2022-10-16T19:10:36.760Z,50.56
2022-10-16T19:13:05.330Z,50.52
2022-10-16T19:15:34.275Z,50.57
2022-10-16T19:18:00.758Z,50.63
2022-10-16T19:20:27.241Z,50.61
2022-10-16T19:22:56.674Z,50.51
2022-10-16T19:25:23.242Z,50.61
2022-10-16T19:27:50.880Z,50.48
2022-10-16T19:30:19.038Z,50.59
2022-10-16T19:32:46.376Z,50.38
2022-10-16T19:35:12.744Z,50.59
2022-10-16T19:37:39.277Z,50.58
2022-10-16T19:40:06.441Z,50.78
2022-10-16T19:42:33.011Z,50.75
2022-10-16T19:44:59.445Z,50.62
2022-10-16T19:47:25.934Z,50.47
2022-10-16T19:49:53.330Z,50.57
2022-10-16T19:52:22.113Z,50.70
2022-10-16T19:54:48.868Z,50.43
2022-10-16T19:57:15.353Z,50.70
2022-10-16T19:59:44.918Z,50.53
2022-10-16T20:02:12.354Z,50.56
2022-10-16T20:04:38.890Z,50.65
2022-10-16T20:07:05.858Z,50.80
2022-10-16T20:09:34.189Z,50.53
2022-10-16T20:12:01.188Z,50.38
2022-10-16T20:14:28.344Z,50.56
2022-10-16T20:16:56.001Z,50.66
2022-10-16T20:19:22.741Z,50.77
2022-10-16T20:21:49.207Z,50.69
2022-10-16T20:24:15.711Z,50.61
2022-10-16T20:26:42.170Z,50.69
2022-10-16T20:29:08.780Z,50.67
2022-10-16T20:31:35.793Z,50.61
2022-10-16T20:34:05.702Z,50.66
2022-10-16T20:36:33.886Z,50.62
2022-10-16T20:39:01.547Z,50.62
2022-10-16T20:41:28.020Z,50.42
2022-10-16T20:43:55.788Z,50.80
2022-10-16T20:46:25.214Z,50.95
2022-10-16T20:48:52.871Z,50.87
2022-10-16T20:51:30.630Z,50.86
2022-10-16T20:54:05.375Z,50.86
2022-10-16T20:56:35.944Z,51.23
2022-10-16T20:59:05.432Z,51.37
2022-10-16T21:01:32.586Z,51.25
2022-10-16T21:04:01.878Z,51.32
2022-10-16T21:06:29.626Z,51.33
2022-10-16T21:08:56.200Z,51.36
2022-10-16T21:11:27.861Z,51.59
2022-10-16T21:13:56.702Z,51.45
2022-10-16T21:16:23.292Z,51.62
2022-10-16T21:18:50.077Z,51.64
2022-10-16T21:21:38.019Z,51.73
2022-10-16T21:24:06.689Z,51.75
2022-10-16T21:26:33.941Z,51.87
2022-10-16T21:29:03.871Z,51.78
2022-10-16T21:31:31.376Z,51.84
2022-10-16T21:33:58.034Z,51.70
2022-10-16T21:36:33.238Z,51.68
2022-10-16T21:39:06.207Z,51.84
2022-10-16T21:41:33.308Z,51.69
2022-10-16T21:44:00.619Z,51.77
2022-10-16T21:46:28.404Z,51.87
2022-10-16T21:48:55.986Z,51.90
2022-10-16T21:51:29.892Z,51.72
2022-10-16T21:53:56.614Z,51.85
2022-10-16T21:56:23.502Z,51.81
2022-10-16T21:58:50.353Z,51.86
2022-10-16T22:01:18.947Z,51.88
2022-10-16T22:03:47.158Z,51.56
2022-10-16T22:06:15.687Z,52.04
2022-10-16T22:08:42.737Z,51.65
2022-10-16T22:11:13.802Z,51.60
2022-10-16T22:13:40.835Z,51.62
2022-10-16T22:16:07.715Z,51.69
2022-10-16T22:18:35.116Z,51.57
2022-10-16T22:21:02.234Z,51.25
2022-10-16T22:23:28.721Z,51.45
2022-10-16T22:26:08.555Z,51.38
2022-10-16T22:28:35.995Z,51.20
2022-10-16T22:31:04.779Z,51.48
2022-10-16T22:33:31.652Z,51.35
2022-10-16T22:36:01.034Z,51.50
2022-10-16T22:38:32.038Z,51.31
2022-10-16T22:41:06.604Z,51.48
2022-10-16T22:43:41.355Z,51.71
2022-10-16T22:46:10.161Z,51.39
2022-10-16T22:48:37.287Z,51.54
2022-10-16T22:51:05.371Z,51.47
2022-10-16T22:53:32.811Z,51.38
2022-10-16T22:55:59.392Z,51.26
2022-10-16T22:58:26.073Z,51.39
2022-10-16T23:00:52.674Z,51.50
2022-10-16T23:03:19.479Z,51.27
2022-10-16T23:05:46.015Z,51.50
2022-10-16T23:08:13.308Z,51.36
2022-10-16T23:10:40.459Z,51.43
2022-10-16T23:13:07.160Z,51.37
2022-10-16T23:15:33.658Z,51.45
2022-10-16T23:18:00.268Z,51.33
2022-10-16T23:20:26.801Z,51.31
2022-10-16T23:22:53.321Z,51.32
2022-10-16T23:25:19.771Z,51.24
2022-10-16T23:27:46.623Z,51.29
2022-10-16T23:30:13.266Z,51.19
2022-10-16T23:32:41.204Z,51.18
2022-10-16T23:35:08.141Z,51.35
2022-10-16T23:37:34.613Z,51.12
2022-10-16T23:40:01.100Z,51.12
2022-10-16T23:42:27.829Z,51.17
2022-10-16T23:44:54.533Z,51.29
2022-10-16T23:47:21.022Z,51.12
2022-10-16T23:49:47.491Z,51.09
2022-10-16T23:52:14.080Z,51.16
2022-10-16T23:54:40.550Z,51.07
2022-10-16T23:57:06.998Z,51.21
2022-10-16T23:59:33.518Z,50.93
